sensor_id;sensor_type;location;lat;lon;timestamp;P1;durP1;ratioP1;P2;durP2;ratioP2
3881;SDS011;1956;53.482;10.238;2023-03-31T00:04:19;21.33;;;4.73;;
3881;SDS011;1956;53.482;10.238;2023-03-31T00:09:23;21.80;;;5.33;;
3881;SDS011;1956;53.482;10.238;2023-03-31T00:14:23;24.67;;;4.13;;
3881;SDS011;1956;53.482;10.238;2023-03-31T00:19:23;14.10;;;3.77;;
3881;SDS011;1956;53.482;10.238;2023-03-31T00:24:24;15.30;;;3.00;;
3881;SDS011;1956;53.482;10.238;2023-03-31T00:29:24;14.43;;;3.27;;
3881;SDS011;1956;53.482;10.238;2023-03-31T00:34:25;10.10;;;2.50;;
3881;SDS011;1956;53.482;10.238;2023-03-31T00:39:26;5.13;;;2.50;;
3881;SDS011;1956;53.482;10.238;2023-03-31T00:44:30;6.33;;;2.10;;
3881;SDS011;1956;53.482;10.238;2023-03-31T00:49:34;8.83;;;2.27;;
3881;SDS011;1956;53.482;10.238;2023-03-31T00:54:36;8.77;;;1.53;;
3881;SDS011;1956;53.482;10.238;2023-03-31T00:59:38;4.87;;;2.03;;
3881;SDS011;1956;53.482;10.238;2023-03-31T01:04:41;14.17;;;3.50;;
3881;SDS011;1956;53.482;10.238;2023-03-31T01:09:44;18.43;;;3.97;;
3881;SDS011;1956;53.482;10.238;2023-03-31T01:14:47;25.13;;;4.10;;
3881;SDS011;1956;53.482;10.238;2023-03-31T01:19:51;19.30;;;3.77;;
3881;SDS011;1956;53.482;10.238;2023-03-31T01:24:58;28.13;;;4.23;;
3881;SDS011;1956;53.482;10.238;2023-03-31T01:35:38;18.17;;;3.80;;
3881;SDS011;1956;53.482;10.238;2023-03-31T01:46:14;10.07;;;3.23;;
3881;SDS011;1956;53.482;10.238;2023-03-31T01:51:21;17.23;;;4.90;;
3881;SDS011;1956;53.482;10.238;2023-03-31T01:56:39;12.30;;;4.50;;
3881;SDS011;1956;53.482;10.238;2023-03-31T02:01:48;14.37;;;5.27;;
3881;SDS011;1956;53.482;10.238;2023-03-31T02:06:52;18.13;;;5.07;;
3881;SDS011;1956;53.482;10.238;2023-03-31T02:11:55;8.83;;;4.97;;
3881;SDS011;1956;53.482;10.238;2023-03-31T02:16:57;13.03;;;5.37;;
3881;SDS011;1956;53.482;10.238;2023-03-31T02:21:58;20.77;;;6.60;;
3881;SDS011;1956;53.482;10.238;2023-03-31T02:32:20;15.23;;;6.90;;
3881;SDS011;1956;53.482;10.238;2023-03-31T02:37:21;19.60;;;8.00;;
3881;SDS011;1956;53.482;10.238;2023-03-31T02:42:21;18.43;;;6.37;;
3881;SDS011;1956;53.482;10.238;2023-03-31T02:47:22;15.60;;;6.50;;
3881;SDS011;1956;53.482;10.238;2023-03-31T02:57:57;18.57;;;6.60;;
3881;SDS011;1956;53.482;10.238;2023-03-31T03:03:20;11.93;;;6.63;;
3881;SDS011;1956;53.482;10.238;2023-03-31T03:08:28;24.33;;;8.07;;
3881;SDS011;1956;53.482;10.238;2023-03-31T03:13:35;27.27;;;7.50;;
3881;SDS011;1956;53.482;10.238;2023-03-31T03:18:39;16.43;;;7.20;;
3881;SDS011;1956;53.482;10.238;2023-03-31T03:23:39;21.93;;;7.97;;
3881;SDS011;1956;53.482;10.238;2023-03-31T03:28:39;20.37;;;7.80;;
3881;SDS011;1956;53.482;10.238;2023-03-31T03:33:40;16.50;;;8.63;;
3881;SDS011;1956;53.482;10.238;2023-03-31T03:38:40;19.60;;;7.70;;
3881;SDS011;1956;53.482;10.238;2023-03-31T03:43:41;12.63;;;7.20;;
3881;SDS011;1956;53.482;10.238;2023-03-31T03:48:41;19.33;;;8.40;;
3881;SDS011;1956;53.482;10.238;2023-03-31T03:53:41;13.60;;;7.33;;
3881;SDS011;1956;53.482;10.238;2023-03-31T03:58:41;24.83;;;8.20;;
3881;SDS011;1956;53.482;10.238;2023-03-31T04:03:42;15.97;;;5.97;;
3881;SDS011;1956;53.482;10.238;2023-03-31T04:08:45;15.83;;;6.83;;
3881;SDS011;1956;53.482;10.238;2023-03-31T04:13:45;16.58;;;7.85;;
3881;SDS011;1956;53.482;10.238;2023-03-31T04:18:46;19.63;;;6.70;;
3881;SDS011;1956;53.482;10.238;2023-03-31T04:23:48;15.23;;;7.30;;
3881;SDS011;1956;53.482;10.238;2023-03-31T04:28:48;11.87;;;6.40;;
3881;SDS011;1956;53.482;10.238;2023-03-31T04:33:53;12.17;;;6.67;;
3881;SDS011;1956;53.482;10.238;2023-03-31T04:38:53;25.23;;;9.30;;
3881;SDS011;1956;53.482;10.238;2023-03-31T04:43:53;22.23;;;8.13;;
3881;SDS011;1956;53.482;10.238;2023-03-31T04:48:54;25.43;;;9.27;;
3881;SDS011;1956;53.482;10.238;2023-03-31T04:53:54;25.55;;;9.55;;
3881;SDS011;1956;53.482;10.238;2023-03-31T04:58:54;24.23;;;9.40;;
3881;SDS011;1956;53.482;10.238;2023-03-31T05:03:55;32.27;;;10.70;;
3881;SDS011;1956;53.482;10.238;2023-03-31T05:08:55;44.00;;;11.53;;
3881;SDS011;1956;53.482;10.238;2023-03-31T05:13:55;26.40;;;11.57;;
3881;SDS011;1956;53.482;10.238;2023-03-31T05:18:56;22.10;;;10.80;;
3881;SDS011;1956;53.482;10.238;2023-03-31T05:23:56;32.43;;;11.87;;
3881;SDS011;1956;53.482;10.238;2023-03-31T05:28:56;21.73;;;9.13;;
3881;SDS011;1956;53.482;10.238;2023-03-31T05:33:57;27.33;;;10.90;;
3881;SDS011;1956;53.482;10.238;2023-03-31T05:38:57;24.70;;;11.17;;
3881;SDS011;1956;53.482;10.238;2023-03-31T05:43:57;25.53;;;10.53;;
3881;SDS011;1956;53.482;10.238;2023-03-31T05:48:57;22.30;;;10.90;;
3881;SDS011;1956;53.482;10.238;2023-03-31T05:53:58;21.98;;;9.45;;
3881;SDS011;1956;53.482;10.238;2023-03-31T05:58:59;17.43;;;9.47;;
3881;SDS011;1956;53.482;10.238;2023-03-31T06:03:59;27.10;;;9.23;;
3881;SDS011;1956;53.482;10.238;2023-03-31T06:08:59;29.58;;;9.50;;
3881;SDS011;1956;53.482;10.238;2023-03-31T06:14:00;24.43;;;9.30;;
3881;SDS011;1956;53.482;10.238;2023-03-31T06:19:00;17.60;;;8.00;;
3881;SDS011;1956;53.482;10.238;2023-03-31T06:24:00;25.63;;;8.80;;
3881;SDS011;1956;53.482;10.238;2023-03-31T06:29:01;21.87;;;9.50;;
3881;SDS011;1956;53.482;10.238;2023-03-31T06:34:01;20.17;;;8.40;;
3881;SDS011;1956;53.482;10.238;2023-03-31T06:39:01;19.83;;;7.63;;
3881;SDS011;1956;53.482;10.238;2023-03-31T06:44:01;18.42;;;8.82;;
3881;SDS011;1956;53.482;10.238;2023-03-31T06:49:02;22.35;;;7.15;;
3881;SDS011;1956;53.482;10.238;2023-03-31T06:54:02;16.90;;;7.70;;
3881;SDS011;1956;53.482;10.238;2023-03-31T06:59:02;17.17;;;6.07;;
3881;SDS011;1956;53.482;10.238;2023-03-31T07:04:02;23.60;;;7.10;;
3881;SDS011;1956;53.482;10.238;2023-03-31T07:09:03;17.63;;;6.83;;
3881;SDS011;1956;53.482;10.238;2023-03-31T07:14:04;11.67;;;5.97;;
3881;SDS011;1956;53.482;10.238;2023-03-31T07:19:05;15.90;;;6.57;;
3881;SDS011;1956;53.482;10.238;2023-03-31T07:24:05;16.13;;;5.40;;
3881;SDS011;1956;53.482;10.238;2023-03-31T07:29:05;9.50;;;5.60;;
3881;SDS011;1956;53.482;10.238;2023-03-31T07:34:06;11.18;;;5.35;;
3881;SDS011;1956;53.482;10.238;2023-03-31T07:39:06;16.60;;;5.30;;
3881;SDS011;1956;53.482;10.238;2023-03-31T07:44:06;11.10;;;4.27;;
3881;SDS011;1956;53.482;10.238;2023-03-31T07:49:07;15.07;;;4.97;;
3881;SDS011;1956;53.482;10.238;2023-03-31T07:54:08;12.73;;;4.47;;
3881;SDS011;1956;53.482;10.238;2023-03-31T07:59:08;12.07;;;3.78;;
3881;SDS011;1956;53.482;10.238;2023-03-31T08:04:10;14.10;;;4.22;;
3881;SDS011;1956;53.482;10.238;2023-03-31T08:09:10;10.43;;;3.60;;
3881;SDS011;1956;53.482;10.238;2023-03-31T08:14:11;11.50;;;4.10;;
3881;SDS011;1956;53.482;10.238;2023-03-31T08:19:11;10.15;;;2.97;;
3881;SDS011;1956;53.482;10.238;2023-03-31T08:24:11;7.37;;;3.63;;
3881;SDS011;1956;53.482;10.238;2023-03-31T08:29:12;10.03;;;3.17;;
3881;SDS011;1956;53.482;10.238;2023-03-31T08:34:13;5.90;;;3.00;;
3881;SDS011;1956;53.482;10.238;2023-03-31T08:39:14;11.70;;;2.90;;
3881;SDS011;1956;53.482;10.238;2023-03-31T08:44:15;5.87;;;3.27;;
3881;SDS011;1956;53.482;10.238;2023-03-31T08:49:18;4.87;;;2.77;;
3881;SDS011;1956;53.482;10.238;2023-03-31T08:54:29;8.93;;;2.70;;
3881;SDS011;1956;53.482;10.238;2023-03-31T08:59:32;5.77;;;2.87;;
3881;SDS011;1956;53.482;10.238;2023-03-31T09:10:22;12.73;;;3.03;;
3881;SDS011;1956;53.482;10.238;2023-03-31T09:15:28;9.43;;;3.30;;
3881;SDS011;1956;53.482;10.238;2023-03-31T09:20:35;9.10;;;3.37;;
3881;SDS011;1956;53.482;10.238;2023-03-31T09:25:37;14.43;;;3.83;;
3881;SDS011;1956;53.482;10.238;2023-03-31T09:30:40;10.60;;;3.20;;
3881;SDS011;1956;53.482;10.238;2023-03-31T09:35:41;9.57;;;4.10;;
3881;SDS011;1956;53.482;10.238;2023-03-31T09:40:41;14.93;;;3.55;;
3881;SDS011;1956;53.482;10.238;2023-03-31T09:45:42;10.60;;;3.83;;
3881;SDS011;1956;53.482;10.238;2023-03-31T09:50:44;7.90;;;3.73;;
3881;SDS011;1956;53.482;10.238;2023-03-31T09:55:46;13.73;;;3.73;;
3881;SDS011;1956;53.482;10.238;2023-03-31T10:00:59;10.70;;;3.90;;
3881;SDS011;1956;53.482;10.238;2023-03-31T10:06:02;13.17;;;4.33;;
3881;SDS011;1956;53.482;10.238;2023-03-31T10:11:08;9.10;;;3.93;;
3881;SDS011;1956;53.482;10.238;2023-03-31T10:16:20;11.50;;;4.17;;
3881;SDS011;1956;53.482;10.238;2023-03-31T10:21:22;9.63;;;3.37;;
3881;SDS011;1956;53.482;10.238;2023-03-31T10:26:25;7.43;;;3.73;;
3881;SDS011;1956;53.482;10.238;2023-03-31T10:31:26;7.80;;;3.53;;
3881;SDS011;1956;53.482;10.238;2023-03-31T10:36:32;11.83;;;3.50;;
3881;SDS011;1956;53.482;10.238;2023-03-31T10:41:34;5.50;;;3.40;;
3881;SDS011;1956;53.482;10.238;2023-03-31T10:46:47;5.03;;;3.00;;
3881;SDS011;1956;53.482;10.238;2023-03-31T10:51:49;3.90;;;2.63;;
3881;SDS011;1956;53.482;10.238;2023-03-31T10:56:51;15.27;;;3.03;;
3881;SDS011;1956;53.482;10.238;2023-03-31T11:07:35;3.10;;;2.50;;
3881;SDS011;1956;53.482;10.238;2023-03-31T11:12:42;7.20;;;2.93;;
3881;SDS011;1956;53.482;10.238;2023-03-31T11:17:55;9.47;;;2.93;;
3881;SDS011;1956;53.482;10.238;2023-03-31T11:23:36;12.20;;;3.53;;
3881;SDS011;1956;53.482;10.238;2023-03-31T11:28:25;3.80;;;2.53;;
3881;SDS011;1956;53.482;10.238;2023-03-31T11:44:08;6.80;;;3.40;;
3881;SDS011;1956;53.482;10.238;2023-03-31T11:49:14;5.87;;;3.50;;
3881;SDS011;1956;53.482;10.238;2023-03-31T11:54:16;5.03;;;3.27;;
3881;SDS011;1956;53.482;10.238;2023-03-31T11:59:17;7.23;;;3.77;;
3881;SDS011;1956;53.482;10.238;2023-03-31T12:04:22;15.80;;;4.37;;
3881;SDS011;1956;53.482;10.238;2023-03-31T12:09:29;5.23;;;4.03;;
3881;SDS011;1956;53.482;10.238;2023-03-31T12:19:55;6.97;;;2.97;;
3881;SDS011;1956;53.482;10.238;2023-03-31T12:24:57;8.10;;;3.30;;
3881;SDS011;1956;53.482;10.238;2023-03-31T12:30:01;3.80;;;3.10;;
3881;SDS011;1956;53.482;10.238;2023-03-31T12:35:04;3.90;;;2.17;;
3881;SDS011;1956;53.482;10.238;2023-03-31T12:40:51;2.87;;;2.10;;
3881;SDS011;1956;53.482;10.238;2023-03-31T12:45:30;8.17;;;2.30;;
3881;SDS011;1956;53.482;10.238;2023-03-31T12:50:49;3.77;;;1.90;;
3881;SDS011;1956;53.482;10.238;2023-03-31T12:55:57;4.67;;;3.40;;
3881;SDS011;1956;53.482;10.238;2023-03-31T13:01:08;9.20;;;3.43;;
3881;SDS011;1956;53.482;10.238;2023-03-31T13:06:11;9.23;;;3.50;;
3881;SDS011;1956;53.482;10.238;2023-03-31T13:11:11;7.97;;;4.40;;
3881;SDS011;1956;53.482;10.238;2023-03-31T13:16:12;7.80;;;3.50;;
3881;SDS011;1956;53.482;10.238;2023-03-31T13:21:18;6.47;;;3.40;;
3881;SDS011;1956;53.482;10.238;2023-03-31T13:37:42;5.20;;;3.10;;
3881;SDS011;1956;53.482;10.238;2023-03-31T13:47:53;7.20;;;3.53;;
3881;SDS011;1956;53.482;10.238;2023-03-31T13:54:23;3.87;;;2.30;;
3881;SDS011;1956;53.482;10.238;2023-03-31T14:03:53;4.20;;;2.60;;
3881;SDS011;1956;53.482;10.238;2023-03-31T14:08:59;2.93;;;2.30;;
3881;SDS011;1956;53.482;10.238;2023-03-31T14:14:01;4.33;;;2.13;;
3881;SDS011;1956;53.482;10.238;2023-03-31T14:19:49;1.87;;;1.70;;
3881;SDS011;1956;53.482;10.238;2023-03-31T14:24:37;1.57;;;1.47;;
3881;SDS011;1956;53.482;10.238;2023-03-31T14:29:51;2.30;;;1.57;;
3881;SDS011;1956;53.482;10.238;2023-03-31T14:35:03;4.83;;;1.90;;
3881;SDS011;1956;53.482;10.238;2023-03-31T14:40:10;1.63;;;1.53;;
3881;SDS011;1956;53.482;10.238;2023-03-31T14:45:22;6.00;;;2.43;;
3881;SDS011;1956;53.482;10.238;2023-03-31T14:50:32;1.80;;;1.70;;
3881;SDS011;1956;53.482;10.238;2023-03-31T14:55:33;1.77;;;1.50;;
3881;SDS011;1956;53.482;10.238;2023-03-31T15:00:33;1.53;;;1.43;;
3881;SDS011;1956;53.482;10.238;2023-03-31T15:05:35;2.87;;;1.30;;
3881;SDS011;1956;53.482;10.238;2023-03-31T15:10:38;2.50;;;1.63;;
3881;SDS011;1956;53.482;10.238;2023-03-31T15:15:39;2.40;;;1.47;;
3881;SDS011;1956;53.482;10.238;2023-03-31T15:20:40;2.20;;;1.70;;
3881;SDS011;1956;53.482;10.238;2023-03-31T15:25:40;1.80;;;1.50;;
3881;SDS011;1956;53.482;10.238;2023-03-31T15:30:42;2.13;;;1.40;;
3881;SDS011;1956;53.482;10.238;2023-03-31T15:35:42;2.30;;;2.10;;
3881;SDS011;1956;53.482;10.238;2023-03-31T15:40:43;3.23;;;2.70;;
3881;SDS011;1956;53.482;10.238;2023-03-31T15:45:46;2.30;;;2.10;;
3881;SDS011;1956;53.482;10.238;2023-03-31T15:50:47;2.80;;;2.17;;
3881;SDS011;1956;53.482;10.238;2023-03-31T15:55:47;7.10;;;3.13;;
3881;SDS011;1956;53.482;10.238;2023-03-31T16:00:51;2.80;;;2.40;;
3881;SDS011;1956;53.482;10.238;2023-03-31T16:05:53;4.80;;;2.03;;
3881;SDS011;1956;53.482;10.238;2023-03-31T16:10:54;3.73;;;2.20;;
3881;SDS011;1956;53.482;10.238;2023-03-31T16:15:56;3.43;;;1.97;;
3881;SDS011;1956;53.482;10.238;2023-03-31T16:20:58;4.50;;;2.03;;
3881;SDS011;1956;53.482;10.238;2023-03-31T16:26:00;6.13;;;2.80;;
3881;SDS011;1956;53.482;10.238;2023-03-31T16:31:01;7.20;;;2.70;;
3881;SDS011;1956;53.482;10.238;2023-03-31T16:36:02;4.80;;;4.10;;
3881;SDS011;1956;53.482;10.238;2023-03-31T16:41:02;10.43;;;7.37;;
3881;SDS011;1956;53.482;10.238;2023-03-31T16:46:05;6.30;;;3.77;;
3881;SDS011;1956;53.482;10.238;2023-03-31T16:51:05;1.80;;;1.70;;
3881;SDS011;1956;53.482;10.238;2023-03-31T16:56:06;3.17;;;1.70;;
3881;SDS011;1956;53.482;10.238;2023-03-31T17:01:07;1.80;;;1.57;;
3881;SDS011;1956;53.482;10.238;2023-03-31T17:06:09;2.07;;;1.70;;
3881;SDS011;1956;53.482;10.238;2023-03-31T17:11:10;2.10;;;1.70;;
3881;SDS011;1956;53.482;10.238;2023-03-31T17:16:11;6.90;;;1.53;;
3881;SDS011;1956;53.482;10.238;2023-03-31T17:21:12;1.93;;;1.23;;
3881;SDS011;1956;53.482;10.238;2023-03-31T17:26:13;1.57;;;1.47;;
3881;SDS011;1956;53.482;10.238;2023-03-31T17:31:15;1.73;;;1.63;;
3881;SDS011;1956;53.482;10.238;2023-03-31T17:36:15;1.80;;;1.20;;
3881;SDS011;1956;53.482;10.238;2023-03-31T17:41:16;4.73;;;1.60;;
3881;SDS011;1956;53.482;10.238;2023-03-31T17:46:17;2.43;;;1.63;;
3881;SDS011;1956;53.482;10.238;2023-03-31T17:51:18;2.07;;;1.70;;
3881;SDS011;1956;53.482;10.238;2023-03-31T17:56:18;3.33;;;2.17;;
3881;SDS011;1956;53.482;10.238;2023-03-31T18:01:18;4.65;;;2.00;;
3881;SDS011;1956;53.482;10.238;2023-03-31T18:06:19;1.97;;;1.87;;
3881;SDS011;1956;53.482;10.238;2023-03-31T18:11:19;2.13;;;1.90;;
3881;SDS011;1956;53.482;10.238;2023-03-31T18:16:20;3.00;;;1.70;;
3881;SDS011;1956;53.482;10.238;2023-03-31T18:21:21;5.70;;;2.30;;
3881;SDS011;1956;53.482;10.238;2023-03-31T18:26:23;5.80;;;1.90;;
3881;SDS011;1956;53.482;10.238;2023-03-31T18:31:24;2.93;;;2.00;;
3881;SDS011;1956;53.482;10.238;2023-03-31T18:36:25;4.10;;;2.20;;
3881;SDS011;1956;53.482;10.238;2023-03-31T18:41:26;2.10;;;2.00;;
3881;SDS011;1956;53.482;10.238;2023-03-31T18:46:26;4.53;;;3.00;;
3881;SDS011;1956;53.482;10.238;2023-03-31T18:51:26;8.27;;;3.70;;
3881;SDS011;1956;53.482;10.238;2023-03-31T18:56:26;6.37;;;4.40;;
3881;SDS011;1956;53.482;10.238;2023-03-31T19:01:27;8.80;;;4.27;;
3881;SDS011;1956;53.482;10.238;2023-03-31T19:06:28;6.73;;;5.90;;
3881;SDS011;1956;53.482;10.238;2023-03-31T19:11:28;10.13;;;6.20;;
3881;SDS011;1956;53.482;10.238;2023-03-31T19:16:28;6.57;;;5.78;;
3881;SDS011;1956;53.482;10.238;2023-03-31T19:21:29;8.50;;;4.87;;
3881;SDS011;1956;53.482;10.238;2023-03-31T19:26:31;7.00;;;5.07;;
3881;SDS011;1956;53.482;10.238;2023-03-31T19:31:31;12.10;;;4.93;;
3881;SDS011;1956;53.482;10.238;2023-03-31T19:36:37;9.87;;;4.20;;
3881;SDS011;1956;53.482;10.238;2023-03-31T19:41:37;4.77;;;4.00;;
3881;SDS011;1956;53.482;10.238;2023-03-31T19:46:37;5.95;;;5.35;;
3881;SDS011;1956;53.482;10.238;2023-03-31T19:51:38;4.97;;;3.30;;
3881;SDS011;1956;53.482;10.238;2023-03-31T19:56:38;6.33;;;4.73;;
3881;SDS011;1956;53.482;10.238;2023-03-31T20:01:38;5.43;;;4.93;;
3881;SDS011;1956;53.482;10.238;2023-03-31T20:06:40;7.80;;;4.50;;
3881;SDS011;1956;53.482;10.238;2023-03-31T20:11:40;5.50;;;4.20;;
3881;SDS011;1956;53.482;10.238;2023-03-31T20:16:42;10.53;;;6.17;;
3881;SDS011;1956;53.482;10.238;2023-03-31T20:21:44;10.20;;;6.73;;
3881;SDS011;1956;53.482;10.238;2023-03-31T20:26:44;12.30;;;6.70;;
3881;SDS011;1956;53.482;10.238;2023-03-31T20:31:45;6.60;;;5.80;;
3881;SDS011;1956;53.482;10.238;2023-03-31T20:36:45;12.00;;;7.00;;
3881;SDS011;1956;53.482;10.238;2023-03-31T20:41:48;11.70;;;5.83;;
3881;SDS011;1956;53.482;10.238;2023-03-31T20:46:49;12.27;;;6.10;;
3881;SDS011;1956;53.482;10.238;2023-03-31T20:51:49;8.40;;;6.77;;
3881;SDS011;1956;53.482;10.238;2023-03-31T20:56:49;7.93;;;6.27;;
3881;SDS011;1956;53.482;10.238;2023-03-31T21:01:50;11.50;;;7.07;;
3881;SDS011;1956;53.482;10.238;2023-03-31T21:06:50;10.67;;;5.67;;
3881;SDS011;1956;53.482;10.238;2023-03-31T21:11:51;9.07;;;6.60;;
3881;SDS011;1956;53.482;10.238;2023-03-31T21:16:51;19.93;;;7.20;;
3881;SDS011;1956;53.482;10.238;2023-03-31T21:21:52;11.13;;;6.90;;
3881;SDS011;1956;53.482;10.238;2023-03-31T21:26:52;10.00;;;6.40;;
3881;SDS011;1956;53.482;10.238;2023-03-31T21:31:52;13.03;;;6.70;;
3881;SDS011;1956;53.482;10.238;2023-03-31T21:36:52;9.80;;;6.37;;
3881;SDS011;1956;53.482;10.238;2023-03-31T21:41:53;12.35;;;6.97;;
3881;SDS011;1956;53.482;10.238;2023-03-31T21:46:53;10.43;;;5.50;;
3881;SDS011;1956;53.482;10.238;2023-03-31T21:51:53;9.93;;;5.67;;
3881;SDS011;1956;53.482;10.238;2023-03-31T21:56:54;15.50;;;5.93;;
3881;SDS011;1956;53.482;10.238;2023-03-31T22:01:54;7.97;;;5.37;;
3881;SDS011;1956;53.482;10.238;2023-03-31T22:06:56;8.80;;;5.90;;
3881;SDS011;1956;53.482;10.238;2023-03-31T22:11:56;8.40;;;5.37;;
3881;SDS011;1956;53.482;10.238;2023-03-31T22:16:57;13.10;;;5.97;;
3881;SDS011;1956;53.482;10.238;2023-03-31T22:21:57;12.10;;;5.93;;
3881;SDS011;1956;53.482;10.238;2023-03-31T22:26:58;17.23;;;6.77;;
3881;SDS011;1956;53.482;10.238;2023-03-31T22:31:58;8.43;;;5.90;;
3881;SDS011;1956;53.482;10.238;2023-03-31T22:36:58;11.33;;;6.60;;
3881;SDS011;1956;53.482;10.238;2023-03-31T22:41:58;11.60;;;7.60;;
3881;SDS011;1956;53.482;10.238;2023-03-31T22:46:59;11.27;;;6.80;;
3881;SDS011;1956;53.482;10.238;2023-03-31T22:51:59;13.23;;;6.40;;
3881;SDS011;1956;53.482;10.238;2023-03-31T22:57:00;12.23;;;6.83;;
3881;SDS011;1956;53.482;10.238;2023-03-31T23:02:00;9.00;;;6.37;;
3881;SDS011;1956;53.482;10.238;2023-03-31T23:07:01;11.90;;;6.40;;
3881;SDS011;1956;53.482;10.238;2023-03-31T23:12:01;12.93;;;6.37;;
3881;SDS011;1956;53.482;10.238;2023-03-31T23:17:01;14.53;;;6.30;;
3881;SDS011;1956;53.482;10.238;2023-03-31T23:22:01;17.00;;;6.70;;
3881;SDS011;1956;53.482;10.238;2023-03-31T23:27:02;14.13;;;6.38;;
3881;SDS011;1956;53.482;10.238;2023-03-31T23:32:02;16.05;;;6.03;;
3881;SDS011;1956;53.482;10.238;2023-03-31T23:37:02;18.17;;;6.47;;
3881;SDS011;1956;53.482;10.238;2023-03-31T23:42:06;12.30;;;6.27;;
3881;SDS011;1956;53.482;10.238;2023-03-31T23:47:06;12.47;;;6.43;;
3881;SDS011;1956;53.482;10.238;2023-03-31T23:52:06;18.45;;;6.03;;
3881;SDS011;1956;53.482;10.238;2023-03-31T23:57:07;12.30;;;5.80;;
